Time;durP1;ratioP1;P1;durP2;ratioP2;P2;SDS_P1;SDS_P2;PMS_P1;PMS_P2;Temp;Humidity;BMP_temperature;BMP_pressure;BME280_temperature;BME280_humidity;BME280_pressure;Samples;Min_cycle;Max_cycle;Signal;HPM_P1;HPM_P2
2023/03/02 00:02:22;;;;;;;33.63;25.67;;;;;;;;;;4959905;28;20186;-81
2023/03/02 00:04:50;;;;;;;38.10;28.13;;;;;;;;;;4985499;28;20174;-81
2023/03/02 00:07:18;;;;;;;38.70;28.77;;;;;;;;;;4994930;28;20189;-81
2023/03/02 00:09:45;;;;;;;40.87;30.07;;;;;;;;;;4993848;28;20182;-77
2023/03/02 00:12:11;;;;;;;40.73;30.07;;;;;;;;;;4976938;28;20190;-77
2023/03/02 00:14:37;;;;;;;45.23;32.00;;;;;;;;;;4976710;28;20269;-76
2023/03/02 00:17:03;;;;;;;46.97;33.67;;;;;;;;;;4963121;28;20241;-77
2023/03/02 00:19:29;;;;;;;49.53;32.63;;;;;;;;;;4978922;28;20181;-77
2023/03/02 00:21:55;;;;;;;49.43;33.80;;;;;;;;;;4979115;28;20220;-77
2023/03/02 00:24:21;;;;;;;46.57;33.70;;;;;;;;;;4985831;28;20209;-77
2023/03/02 00:26:47;;;;;;;51.03;35.43;;;;;;;;;;4984802;28;20183;-76
2023/03/02 00:29:13;;;;;;;49.70;34.77;;;;;;;;;;4959494;28;20191;-77
2023/03/02 00:31:39;;;;;;;49.13;35.33;;;;;;;;;;4977952;28;20189;-77
2023/03/02 00:34:05;;;;;;;54.80;36.20;;;;;;;;;;4978894;28;20188;-77
2023/03/02 00:36:32;;;;;;;54.77;36.87;;;;;;;;;;4978819;28;20281;-77
2023/03/02 00:38:58;;;;;;;56.13;38.60;;;;;;;;;;4979049;28;20213;-77
2023/03/02 00:41:24;;;;;;;55.90;37.63;;;;;;;;;;4980302;28;20230;-76
2023/03/02 00:43:50;;;;;;;57.83;37.90;;;;;;;;;;4978604;28;20182;-76
2023/03/02 00:46:21;;;;;;;59.20;39.53;;;;;;;;;;4994697;28;20178;-77
2023/03/02 00:48:47;;;;;;;59.50;38.77;;;;;;;;;;4993193;28;20255;-77
2023/03/02 00:51:13;;;;;;;58.47;40.90;;;;;;;;;;4988069;28;20178;-78
2023/03/02 00:53:40;;;;;;;63.07;39.53;;;;;;;;;;4991805;28;20182;-78
2023/03/02 00:56:06;;;;;;;65.80;40.80;;;;;;;;;;4974880;28;20217;-78
2023/03/02 00:58:32;;;;;;;61.30;39.87;;;;;;;;;;4959211;28;20183;-76
2023/03/02 01:00:58;;;;;;;60.60;37.50;;;;;;;;;;4974992;28;20310;-76
2023/03/02 01:03:24;;;;;;;62.60;39.20;;;;;;;;;;4974676;28;20178;-77
2023/03/02 01:05:55;;;;;;;58.73;38.40;;;;;;;;;;4958944;28;20183;-76
2023/03/02 01:08:22;;;;;;;57.10;37.30;;;;;;;;;;4975749;28;20182;-76
2023/03/02 01:10:48;;;;;;;57.33;38.45;;;;;;;;;;4974862;28;20427;-77
2023/03/02 01:13:14;;;;;;;60.43;38.87;;;;;;;;;;4972679;28;20197;-77
2023/03/02 01:15:40;;;;;;;63.00;45.13;;;;;;;;;;4974297;28;20435;-78
2023/03/02 01:18:06;;;;;;;62.72;47.58;;;;;;;;;;4958263;28;20414;-81
2023/03/02 01:20:32;;;;;;;55.97;37.40;;;;;;;;;;4977083;28;20297;-81
2023/03/02 01:22:58;;;;;;;52.07;35.53;;;;;;;;;;4994238;28;20225;-77
2023/03/02 01:25:24;;;;;;;51.30;34.47;;;;;;;;;;4977159;28;20186;-77
2023/03/02 01:27:50;;;;;;;52.17;33.30;;;;;;;;;;4958663;28;20187;-77
2023/03/02 01:30:16;;;;;;;55.15;42.15;;;;;;;;;;4981181;28;20424;-77
2023/03/02 01:32:42;;;;;;;59.20;44.60;;;;;;;;;;4992799;28;20420;-81
2023/03/02 01:35:09;;;;;;;58.03;43.57;;;;;;;;;;4978679;28;20425;-81
2023/03/02 01:37:35;;;;;;;58.90;42.53;;;;;;;;;;4971554;28;20430;-81
2023/03/02 01:40:04;;;;;;;58.33;38.70;;;;;;;;;;4965800;28;20293;-81
2023/03/02 01:42:34;;;;;;;56.13;36.43;;;;;;;;;;4999393;28;20176;-81
2023/03/02 01:45:00;;;;;;;62.47;44.50;;;;;;;;;;5013677;28;20405;-81
2023/03/02 01:47:28;;;;;;;62.92;46.88;;;;;;;;;;5015878;28;20496;-81
2023/03/02 01:49:57;;;;;;;63.08;46.88;;;;;;;;;;5015877;28;20409;-81
2023/03/02 01:52:23;;;;;;;61.75;47.47;;;;;;;;;;5010094;28;20418;-81
2023/03/02 01:54:50;;;;;;;62.30;48.13;;;;;;;;;;5013378;28;20407;-81
2023/03/02 01:57:20;;;;;;;63.67;47.67;;;;;;;;;;5004549;28;20576;-81
2023/03/02 01:59:47;;;;;;;57.60;38.97;;;;;;;;;;5016210;28;20176;-82
2023/03/02 02:02:13;;;;;;;61.00;43.80;;;;;;;;;;5013498;28;20406;-82
2023/03/02 02:04:41;;;;;;;62.72;46.25;;;;;;;;;;5000942;28;20479;-78
2023/03/02 02:07:08;;;;;;;63.55;47.28;;;;;;;;;;5005431;28;20414;-78
2023/03/02 02:09:36;;;;;;;63.80;47.28;;;;;;;;;;5015366;28;20402;-78
2023/03/02 02:12:04;;;;;;;63.55;46.35;;;;;;;;;;5015681;28;20398;-78
2023/03/02 02:14:30;;;;;;;60.72;39.40;;;;;;;;;;5016410;28;20404;-76
2023/03/02 02:16:56;;;;;;;63.00;47.65;;;;;;;;;;4998943;28;20513;-76
2023/03/02 02:19:35;;;;;;;60.42;45.88;;;;;;;;;;4988362;28;20413;-77
2023/03/02 02:22:01;;;;;;;59.35;45.58;;;;;;;;;;5027893;28;20413;-78
2023/03/02 02:24:31;;;;;;;57.55;45.00;;;;;;;;;;4997495;28;20533;-78
2023/03/02 02:26:57;;;;;;;59.65;45.78;;;;;;;;;;5032248;28;20516;-78
2023/03/02 02:29:23;;;;;;;58.65;45.50;;;;;;;;;;5031290;28;20466;-78
2023/03/02 02:31:52;;;;;;;58.63;44.95;;;;;;;;;;5029854;28;20497;-78
2023/03/02 02:34:22;;;;;;;58.60;44.92;;;;;;;;;;5033215;28;20421;-78
2023/03/02 02:36:50;;;;;;;56.38;44.47;;;;;;;;;;5015752;28;20545;-78
2023/03/02 02:39:29;;;;;;;57.72;44.28;;;;;;;;;;5034925;28;20416;-78
2023/03/02 02:41:58;;;;;;;60.45;45.33;;;;;;;;;;4993927;28;20438;-78
2023/03/02 02:44:24;;;;;;;59.83;44.95;;;;;;;;;;4977725;28;20437;-78
2023/03/02 02:46:50;;;;;;;60.05;45.35;;;;;;;;;;4993236;28;20428;-78
2023/03/02 02:49:21;;;;;;;60.20;43.70;;;;;;;;;;4996214;28;20415;-78
2023/03/02 02:51:47;;;;;;;59.37;44.23;;;;;;;;;;4992244;28;20436;-78
2023/03/02 02:54:16;;;;;;;58.67;44.17;;;;;;;;;;4979833;28;20416;-78
2023/03/02 02:56:43;;;;;;;59.72;43.65;;;;;;;;;;4983301;28;20501;-77
2023/03/02 02:59:27;;;;;;;57.08;43.65;;;;;;;;;;4995894;28;20471;-77
2023/03/02 03:01:54;;;;;;;58.15;43.30;;;;;;;;;;4992606;28;20431;-77
2023/03/02 03:04:21;;;;;;;59.20;44.20;;;;;;;;;;4991665;28;20469;-77
2023/03/02 03:07:13;;;;;;;55.60;43.00;;;;;;;;;;4976596;28;20422;-76
2023/03/02 03:09:40;;;;;;;58.85;43.47;;;;;;;;;;4940475;28;20508;-76
2023/03/02 03:12:17;;;;;;;58.55;43.33;;;;;;;;;;4960557;28;20518;-76
2023/03/02 03:14:43;;;;;;;57.13;42.87;;;;;;;;;;4991426;28;20438;-77
2023/03/02 03:17:12;;;;;;;59.97;43.78;;;;;;;;;;4973915;28;20417;-77
2023/03/02 03:19:39;;;;;;;59.83;43.22;;;;;;;;;;4992300;28;20409;-77
2023/03/02 03:22:05;;;;;;;57.42;43.17;;;;;;;;;;4993090;28;20408;-77
2023/03/02 03:24:32;;;;;;;57.97;42.38;;;;;;;;;;4978650;28;20459;-77
2023/03/02 03:26:58;;;;;;;59.35;42.58;;;;;;;;;;4992466;28;20401;-77
2023/03/02 03:29:25;;;;;;;55.65;42.78;;;;;;;;;;4994929;28;20429;-81
2023/03/02 03:31:51;;;;;;;57.20;42.28;;;;;;;;;;4975979;28;20501;-81
2023/03/02 03:34:18;;;;;;;55.72;41.67;;;;;;;;;;4969335;28;20422;-81
2023/03/02 03:36:44;;;;;;;57.22;41.22;;;;;;;;;;4979435;28;20444;-81
2023/03/02 03:39:11;;;;;;;53.83;41.35;;;;;;;;;;4995083;28;20495;-81
2023/03/02 03:41:37;;;;;;;56.17;41.33;;;;;;;;;;5022763;28;20441;-77
2023/03/02 03:44:04;;;;;;;56.67;42.70;;;;;;;;;;5034540;28;20421;-77
2023/03/02 03:46:30;;;;;;;53.85;40.55;;;;;;;;;;5017392;28;20421;-77
2023/03/02 03:48:56;;;;;;;55.88;40.72;;;;;;;;;;5001295;28;20413;-77
2023/03/02 03:51:23;;;;;;;57.58;42.35;;;;;;;;;;5003930;28;20427;-77
2023/03/02 03:53:58;;;;;;;57.45;40.85;;;;;;;;;;5014331;28;20419;-77
2023/03/02 03:56:25;;;;;;;57.20;42.25;;;;;;;;;;5013936;28;20494;-77
2023/03/02 03:59:05;;;;;;;56.40;41.55;;;;;;;;;;4998183;28;20411;-77
2023/03/02 04:01:38;;;;;;;58.15;41.85;;;;;;;;;;4991588;28;20443;-77
2023/03/02 04:04:05;;;;;;;62.50;44.20;;;;;;;;;;5014395;28;20399;-76
2023/03/02 04:06:31;;;;;;;60.35;43.08;;;;;;;;;;5017141;28;20414;-76
2023/03/02 04:09:03;;;;;;;58.85;41.72;;;;;;;;;;5034951;28;20413;-76
2023/03/02 04:11:29;;;;;;;59.78;41.80;;;;;;;;;;5000429;28;20442;-76
2023/03/02 04:13:55;;;;;;;61.87;43.63;;;;;;;;;;5015090;28;20426;-77
2023/03/02 04:16:21;;;;;;;63.35;43.45;;;;;;;;;;4997625;28;20415;-77
2023/03/02 04:18:47;;;;;;;64.53;44.97;;;;;;;;;;4994470;28;20417;-77
2023/03/02 04:21:13;;;;;;;64.65;44.75;;;;;;;;;;5011834;28;20438;-77
2023/03/02 04:23:39;;;;;;;66.80;45.95;;;;;;;;;;5014889;28;20431;-76
2023/03/02 04:26:05;;;;;;;66.65;45.80;;;;;;;;;;5015562;28;20446;-77
2023/03/02 04:28:32;;;;;;;67.13;44.92;;;;;;;;;;4988387;28;20407;-76
2023/03/02 04:30:58;;;;;;;64.15;45.00;;;;;;;;;;5014766;28;20415;-76
2023/03/02 04:33:27;;;;;;;67.80;46.30;;;;;;;;;;4981696;28;20442;-76
2023/03/02 04:35:55;;;;;;;65.00;44.67;;;;;;;;;;4997925;28;20419;-76
2023/03/02 04:38:22;;;;;;;62.25;43.90;;;;;;;;;;5005700;28;20418;-76
2023/03/02 04:40:48;;;;;;;66.03;44.72;;;;;;;;;;5016672;28;20449;-76
2023/03/02 04:43:14;;;;;;;65.38;43.53;;;;;;;;;;5009392;28;20413;-76
2023/03/02 04:45:40;;;;;;;61.63;42.78;;;;;;;;;;5000895;28;20412;-76
2023/03/02 04:48:06;;;;;;;61.83;42.13;;;;;;;;;;5016581;28;20402;-77
2023/03/02 04:50:32;;;;;;;58.83;41.67;;;;;;;;;;5013595;28;20411;-76
2023/03/02 04:52:58;;;;;;;61.65;42.35;;;;;;;;;;5015325;28;20407;-81
2023/03/02 04:55:26;;;;;;;59.57;41.30;;;;;;;;;;5016130;28;20402;-81
2023/03/02 04:57:52;;;;;;;61.85;42.13;;;;;;;;;;5016470;28;20492;-81
2023/03/02 05:00:19;;;;;;;59.13;41.00;;;;;;;;;;5034125;28;20441;-81
2023/03/02 05:02:46;;;;;;;56.33;40.43;;;;;;;;;;5016495;28;20401;-81
2023/03/02 05:05:15;;;;;;;60.25;41.15;;;;;;;;;;5002623;28;20430;-81
2023/03/02 05:07:41;;;;;;;59.25;41.38;;;;;;;;;;5016632;28;20398;-76
2023/03/02 05:10:07;;;;;;;59.75;41.33;;;;;;;;;;5016342;28;20420;-76
2023/03/02 05:12:53;;;;;;;56.50;39.83;;;;;;;;;;5016590;28;20405;-76
2023/03/02 05:15:19;;;;;;;53.85;39.45;;;;;;;;;;5016326;28;20401;-76
2023/03/02 05:17:45;;;;;;;55.40;38.97;;;;;;;;;;5016497;28;20493;-76
2023/03/02 05:20:11;;;;;;;54.47;38.43;;;;;;;;;;5016063;28;20509;-76
2023/03/02 05:22:37;;;;;;;56.67;39.70;;;;;;;;;;5015653;28;20420;-76
2023/03/02 05:25:04;;;;;;;56.25;39.28;;;;;;;;;;5000369;28;20403;-76
2023/03/02 05:27:30;;;;;;;56.78;39.67;;;;;;;;;;5029118;28;20407;-76
2023/03/02 05:29:56;;;;;;;56.17;39.33;;;;;;;;;;5029134;28;20417;-76
2023/03/02 05:32:22;;;;;;;57.55;40.63;;;;;;;;;;5029348;28;20412;-76
2023/03/02 05:34:48;;;;;;;59.38;41.22;;;;;;;;;;5013210;28;20420;-76
2023/03/02 05:37:14;;;;;;;59.00;41.53;;;;;;;;;;5029009;28;20465;-77
2023/03/02 05:39:40;;;;;;;58.72;41.60;;;;;;;;;;5008844;23;20422;-78
2023/03/02 05:42:06;;;;;;;61.67;43.15;;;;;;;;;;5015203;28;20429;-77
2023/03/02 05:44:32;;;;;;;61.00;42.45;;;;;;;;;;4999201;28;20448;-77
2023/03/02 05:46:58;;;;;;;61.85;42.47;;;;;;;;;;5015041;28;20405;-76
2023/03/02 05:49:24;;;;;;;59.65;41.63;;;;;;;;;;4995602;28;20430;-77
2023/03/02 05:51:50;;;;;;;60.20;41.17;;;;;;;;;;5015520;28;20451;-77
2023/03/02 05:54:16;;;;;;;60.70;41.97;;;;;;;;;;4998826;28;20413;-77
2023/03/02 05:56:42;;;;;;;60.90;41.92;;;;;;;;;;4998544;28;20413;-77
2023/03/02 05:59:08;;;;;;;59.47;41.75;;;;;;;;;;5001811;28;20415;-78
2023/03/02 06:01:35;;;;;;;60.72;41.25;;;;;;;;;;5012462;28;20433;-78
2023/03/02 06:04:02;;;;;;;61.78;41.47;;;;;;;;;;5014856;28;20483;-78
2023/03/02 06:06:28;;;;;;;59.23;40.50;;;;;;;;;;5001448;28;20427;-78
2023/03/02 06:08:54;;;;;;;59.70;41.25;;;;;;;;;;4995202;28;20403;-78
2023/03/02 06:11:20;;;;;;;64.90;41.33;;;;;;;;;;5008588;28;20488;-78
2023/03/02 06:13:46;;;;;;;60.35;40.47;;;;;;;;;;5004307;28;20478;-78
2023/03/02 06:16:12;;;;;;;64.07;41.37;;;;;;;;;;4998311;28;20513;-76
2023/03/02 06:18:38;;;;;;;63.53;41.42;;;;;;;;;;4997074;28;20494;-76
2023/03/02 06:21:05;;;;;;;64.95;42.70;;;;;;;;;;4993854;28;20427;-76
2023/03/02 06:23:31;;;;;;;60.58;41.90;;;;;;;;;;5032186;28;20414;-76
2023/03/02 06:25:57;;;;;;;59.40;41.63;;;;;;;;;;5005871;28;20493;-76
2023/03/02 06:28:24;;;;;;;58.45;40.30;;;;;;;;;;4987405;28;20417;-76
2023/03/02 06:30:51;;;;;;;60.00;41.17;;;;;;;;;;5028346;28;20415;-77
2023/03/02 06:33:18;;;;;;;59.17;39.80;;;;;;;;;;5011620;28;20417;-76
2023/03/02 06:35:45;;;;;;;57.58;39.40;;;;;;;;;;5009912;28;20504;-76
2023/03/02 06:38:11;;;;;;;57.83;40.17;;;;;;;;;;5015491;28;20413;-76
2023/03/02 06:40:37;;;;;;;59.88;40.08;;;;;;;;;;5011300;28;20487;-76
2023/03/02 06:43:03;;;;;;;56.00;38.92;;;;;;;;;;4993937;28;20427;-76
2023/03/02 06:45:32;;;;;;;57.72;39.58;;;;;;;;;;5002680;28;20430;-76
2023/03/02 06:47:58;;;;;;;54.67;37.70;;;;;;;;;;4987883;28;20419;-76
2023/03/02 06:50:24;;;;;;;55.60;38.23;;;;;;;;;;4997695;28;20455;-77
2023/03/02 06:52:50;;;;;;;54.30;37.75;;;;;;;;;;4986139;28;20435;-77
2023/03/02 06:55:16;;;;;;;56.78;37.42;;;;;;;;;;4982856;28;20443;-76
2023/03/02 06:57:42;;;;;;;55.55;36.85;;;;;;;;;;4995265;28;20415;-76
2023/03/02 07:00:12;;;;;;;56.08;37.95;;;;;;;;;;5008515;28;20425;-76
2023/03/02 07:02:38;;;;;;;54.63;37.08;;;;;;;;;;5015339;28;20421;-76
2023/03/02 07:05:05;;;;;;;53.15;36.38;;;;;;;;;;5011025;28;20423;-76
2023/03/02 07:07:31;;;;;;;51.83;35.65;;;;;;;;;;5017537;28;20447;-76
2023/03/02 07:09:57;;;;;;;53.72;36.70;;;;;;;;;;5048017;28;20449;-77
2023/03/02 07:12:23;;;;;;;53.70;35.13;;;;;;;;;;5014242;28;20453;-77
2023/03/02 07:14:49;;;;;;;48.83;34.20;;;;;;;;;;5014592;28;20486;-77
2023/03/02 07:17:15;;;;;;;50.28;34.53;;;;;;;;;;4995105;28;20477;-77
2023/03/02 07:19:41;;;;;;;53.97;35.27;;;;;;;;;;5013864;28;20493;-76
2023/03/02 07:22:07;;;;;;;52.35;35.15;;;;;;;;;;5001485;28;20482;-76
2023/03/02 07:24:34;;;;;;;50.17;35.03;;;;;;;;;;4982552;28;20509;-76
2023/03/02 07:27:00;;;;;;;52.60;34.92;;;;;;;;;;5015525;28;20420;-76
2023/03/02 07:29:26;;;;;;;53.35;36.75;;;;;;;;;;5002027;28;20410;-76
2023/03/02 07:31:55;;;;;;;52.80;35.78;;;;;;;;;;5002081;28;20414;-76
2023/03/02 07:34:22;;;;;;;54.85;36.92;;;;;;;;;;5026554;28;20419;-76
2023/03/02 07:36:48;;;;;;;52.28;35.88;;;;;;;;;;5021652;28;20493;-76
2023/03/02 07:39:14;;;;;;;51.03;30.33;;;;;;;;;;5039008;28;20176;-77
2023/03/02 07:41:40;;;;;;;50.33;28.40;;;;;;;;;;5042328;28;20228;-76
2023/03/02 07:44:06;;;;;;;48.77;27.20;;;;;;;;;;4999539;28;20248;-76
2023/03/02 07:46:32;;;;;;;50.35;34.05;;;;;;;;;;4994400;28;20481;-76
2023/03/02 07:48:58;;;;;;;52.92;33.92;;;;;;;;;;5017794;28;20410;-77
2023/03/02 07:51:24;;;;;;;51.00;29.73;;;;;;;;;;5018719;28;20196;-76
2023/03/02 07:53:50;;;;;;;49.70;27.17;;;;;;;;;;5002503;28;20279;-76
2023/03/02 07:56:17;;;;;;;53.25;35.53;;;;;;;;;;4998056;28;20460;-78
2023/03/02 07:58:43;;;;;;;47.90;28.50;;;;;;;;;;4983037;28;20189;-78
2023/03/02 08:01:09;;;;;;;53.50;34.37;;;;;;;;;;5001605;28;20504;-78
2023/03/02 08:03:36;;;;;;;52.00;34.53;;;;;;;;;;5017232;28;20421;-78
2023/03/02 08:06:09;;;;;;;52.58;35.05;;;;;;;;;;5017389;28;20548;-78
2023/03/02 08:08:35;;;;;;;49.35;34.03;;;;;;;;;;5017361;28;20431;-78
2023/03/02 08:11:09;;;;;;;51.97;34.95;;;;;;;;;;4997577;28;20415;-77
2023/03/02 08:13:35;;;;;;;49.00;33.53;;;;;;;;;;4997547;28;20411;-76
2023/03/02 08:16:02;;;;;;;51.03;33.05;;;;;;;;;;5004875;28;20452;-76
2023/03/02 08:18:28;;;;;;;47.53;32.03;;;;;;;;;;5001068;28;20417;-76
2023/03/02 08:20:55;;;;;;;47.10;32.03;;;;;;;;;;4997545;28;20459;-76
2023/03/02 08:23:21;;;;;;;45.88;29.98;;;;;;;;;;4981995;28;20434;-77
2023/03/02 08:25:47;;;;;;;46.92;31.52;;;;;;;;;;5019716;28;20418;-77
2023/03/02 08:28:13;;;;;;;46.10;32.08;;;;;;;;;;5010601;28;20411;-77
2023/03/02 08:30:39;;;;;;;48.08;31.90;;;;;;;;;;4997189;28;20413;-77
2023/03/02 08:33:06;;;;;;;44.40;31.20;;;;;;;;;;5017020;28;20413;-78
2023/03/02 08:35:32;;;;;;;42.72;30.13;;;;;;;;;;5017116;28;20493;-78
2023/03/02 08:37:58;;;;;;;42.42;30.38;;;;;;;;;;4999244;28;20494;-78
2023/03/02 08:40:25;;;;;;;41.60;28.80;;;;;;;;;;4994093;28;20532;-78
2023/03/02 08:42:55;;;;;;;40.63;28.95;;;;;;;;;;5008870;28;20439;-78
2023/03/02 08:45:22;;;;;;;41.85;28.92;;;;;;;;;;5014222;28;20420;-77
2023/03/02 08:47:48;;;;;;;39.78;28.27;;;;;;;;;;4994236;28;20443;-77
2023/03/02 08:50:14;;;;;;;37.47;27.42;;;;;;;;;;5003081;28;20435;-77
2023/03/02 08:52:40;;;;;;;34.63;26.38;;;;;;;;;;5014565;28;20425;-77
2023/03/02 08:55:07;;;;;;;35.27;26.17;;;;;;;;;;4997172;28;20498;-77
2023/03/02 08:57:33;;;;;;;36.40;23.27;;;;;;;;;;4991185;28;20223;-77
2023/03/02 08:59:59;;;;;;;36.10;23.23;;;;;;;;;;5004749;28;20216;-77
2023/03/02 09:02:25;;;;;;;36.77;22.83;;;;;;;;;;4993876;28;20178;-79
2023/03/02 09:04:51;;;;;;;35.03;22.43;;;;;;;;;;4990694;28;20182;-79
2023/03/02 09:07:18;;;;;;;33.83;21.87;;;;;;;;;;5014999;28;20182;-79
2023/03/02 09:09:44;;;;;;;34.23;21.67;;;;;;;;;;4999946;28;20185;-79
2023/03/02 09:12:09;;;;;;;35.70;21.93;;;;;;;;;;4989701;28;20188;-79
2023/03/02 09:14:36;;;;;;;34.13;21.90;;;;;;;;;;5001126;28;20183;-79
2023/03/02 09:17:02;;;;;;;31.87;21.53;;;;;;;;;;5011372;28;20207;-80
2023/03/02 09:19:28;;;;;;;33.27;21.70;;;;;;;;;;5017186;28;20187;-77
2023/03/02 09:21:54;;;;;;;30.27;20.80;;;;;;;;;;5017036;28;20212;-78
2023/03/02 09:24:20;;;;;;;32.93;22.03;;;;;;;;;;4997396;28;20189;-78
2023/03/02 09:26:46;;;;;;;31.17;21.30;;;;;;;;;;5021190;28;20185;-78
2023/03/02 09:29:12;;;;;;;28.73;20.43;;;;;;;;;;5009361;28;20227;-78
2023/03/02 09:31:38;;;;;;;27.80;19.93;;;;;;;;;;4996044;28;20185;-78
2023/03/02 09:34:04;;;;;;;30.90;21.13;;;;;;;;;;4995736;28;20240;-78
2023/03/02 09:36:31;;;;;;;30.00;21.67;;;;;;;;;;4997210;28;20185;-77
2023/03/02 09:38:57;;;;;;;27.87;20.30;;;;;;;;;;4981480;28;20186;-78
2023/03/02 09:41:30;;;;;;;26.60;19.33;;;;;;;;;;4998727;28;20220;-78
2023/03/02 09:44:15;;;;;;;27.73;19.50;;;;;;;;;;5007010;28;20183;-78
2023/03/02 09:47:02;;;;;;;26.20;19.10;;;;;;;;;;5013508;28;20201;-78
2023/03/02 09:49:31;;;;;;;25.03;18.67;;;;;;;;;;5014893;28;20187;-78
2023/03/02 09:52:21;;;;;;;26.70;19.13;;;;;;;;;;5034338;28;20183;-81
2023/03/02 09:54:47;;;;;;;26.90;18.70;;;;;;;;;;5015256;28;20188;-81
2023/03/02 09:57:33;;;;;;;27.30;19.47;;;;;;;;;;5017059;28;20184;-81
2023/03/02 10:00:01;;;;;;;25.50;18.87;;;;;;;;;;5033681;28;20255;-81
2023/03/02 10:02:28;;;;;;;24.03;18.23;;;;;;;;;;5016575;28;20173;-81
2023/03/02 10:04:56;;;;;;;24.13;18.53;;;;;;;;;;5034082;28;20179;-82
2023/03/02 10:07:27;;;;;;;25.00;17.90;;;;;;;;;;5033311;28;20181;-82
2023/03/02 10:09:53;;;;;;;23.90;17.67;;;;;;;;;;5015228;28;20187;-78
2023/03/02 10:12:49;;;;;;;24.23;18.37;;;;;;;;;;5015072;28;20185;-78
2023/03/02 10:15:30;;;;;;;22.23;17.27;;;;;;;;;;4930021;28;20196;-78
2023/03/02 10:18:00;;;;;;;20.27;15.87;;;;;;;;;;5014479;28;20196;-79
2023/03/02 10:20:30;;;;;;;20.73;17.07;;;;;;;;;;5015409;28;20208;-78
2023/03/02 10:22:59;;;;;;;20.60;15.90;;;;;;;;;;5032905;28;20183;-78
2023/03/02 10:25:33;;;;;;;19.83;15.90;;;;;;;;;;5015853;28;20172;-79
2023/03/02 10:28:15;;;;;;;19.67;15.57;;;;;;;;;;5015586;28;20184;-78
2023/03/02 10:30:41;;;;;;;19.93;15.33;;;;;;;;;;5014230;28;20191;-78
2023/03/02 10:33:18;;;;;;;17.00;14.97;;;;;;;;;;5015002;28;20229;-78
2023/03/02 10:35:53;;;;;;;19.67;15.33;;;;;;;;;;5033430;28;20187;-79
2023/03/02 10:38:20;;;;;;;19.10;15.23;;;;;;;;;;5015578;28;20179;-79
2023/03/02 10:40:58;;;;;;;20.20;15.57;;;;;;;;;;5015602;28;20228;-79
2023/03/02 10:43:31;;;;;;;19.20;15.13;;;;;;;;;;5015138;28;20183;-79
2023/03/02 10:45:58;;;;;;;18.20;15.47;;;;;;;;;;5032880;28;20181;-79
2023/03/02 10:48:24;;;;;;;18.93;15.13;;;;;;;;;;5013542;28;20248;-79
2023/03/02 10:50:53;;;;;;;18.00;14.87;;;;;;;;;;5015314;28;20225;-79
2023/03/02 10:53:19;;;;;;;18.30;14.67;;;;;;;;;;5014928;28;20176;-76
2023/03/02 10:55:49;;;;;;;18.10;15.10;;;;;;;;;;5002716;28;20184;-76
2023/03/02 10:58:21;;;;;;;19.57;15.13;;;;;;;;;;5017621;28;20192;-77
2023/03/02 11:00:57;;;;;;;18.40;14.80;;;;;;;;;;5030649;28;20207;-79
2023/03/02 11:03:24;;;;;;;17.33;14.47;;;;;;;;;;5044087;28;20175;-77
2023/03/02 11:05:50;;;;;;;17.83;14.60;;;;;;;;;;5018547;28;20227;-77
2023/03/02 11:08:17;;;;;;;17.40;14.33;;;;;;;;;;5018961;28;20165;-77
2023/03/02 11:11:03;;;;;;;18.60;14.20;;;;;;;;;;5036337;28;20177;-77
2023/03/02 11:13:34;;;;;;;16.63;13.80;;;;;;;;;;5025714;28;20238;-77
2023/03/02 11:16:01;;;;;;;18.13;13.93;;;;;;;;;;5036204;28;20180;-77
2023/03/02 11:18:39;;;;;;;16.40;13.90;;;;;;;;;;5018332;28;20184;-77
2023/03/02 11:21:24;;;;;;;18.30;14.40;;;;;;;;;;5018335;28;20322;-77
2023/03/02 11:23:53;;;;;;;18.93;15.30;;;;;;;;;;5035779;28;20185;-77
2023/03/02 11:26:27;;;;;;;17.73;14.30;;;;;;;;;;5036119;28;20231;-77
2023/03/02 11:29:11;;;;;;;19.53;14.47;;;;;;;;;;5017851;28;20187;-77
2023/03/02 11:31:42;;;;;;;16.70;14.90;;;;;;;;;;5035478;28;20432;-83
2023/03/02 11:34:15;;;;;;;17.70;15.18;;;;;;;;;;5017041;28;20453;-83
2023/03/02 11:36:48;;;;;;;16.90;14.77;;;;;;;;;;5017973;28;20410;-84
2023/03/02 11:39:17;;;;;;;16.53;14.83;;;;;;;;;;5034417;28;20425;-83
2023/03/02 11:41:43;;;;;;;17.03;14.93;;;;;;;;;;5035329;28;20451;-83
2023/03/02 11:44:15;;;;;;;16.13;14.43;;;;;;;;;;5001368;28;20427;-83
2023/03/02 11:46:43;;;;;;;14.77;13.27;;;;;;;;;;5017933;28;20405;-83
2023/03/02 11:49:15;;;;;;;15.02;13.50;;;;;;;;;;5016656;28;20475;-84
2023/03/02 11:51:47;;;;;;;16.80;14.88;;;;;;;;;;5017552;28;20433;-84
2023/03/02 11:54:22;;;;;;;17.77;15.95;;;;;;;;;;5017315;28;20422;-84
2023/03/02 11:56:48;;;;;;;17.48;14.68;;;;;;;;;;5017266;28;20418;-83
2023/03/02 11:59:17;;;;;;;17.83;14.98;;;;;;;;;;5016456;28;20429;-84
2023/03/02 12:01:44;;;;;;;16.20;14.52;;;;;;;;;;5017557;28;20426;-83
2023/03/02 12:04:25;;;;;;;16.85;14.73;;;;;;;;;;5016684;28;20476;-82
2023/03/02 12:06:51;;;;;;;17.03;15.23;;;;;;;;;;5031928;28;20443;-83
2023/03/02 12:09:23;;;;;;;15.88;14.15;;;;;;;;;;5019490;28;20436;-83
2023/03/02 12:12:19;;;;;;;16.60;14.77;;;;;;;;;;5041423;28;20429;-83
2023/03/02 12:14:45;;;;;;;17.27;15.45;;;;;;;;;;5006680;28;20429;-85
2023/03/02 12:17:19;;;;;;;17.30;15.45;;;;;;;;;;4994891;28;20439;-85
2023/03/02 12:19:45;;;;;;;17.23;15.13;;;;;;;;;;4999181;28;20407;-84
2023/03/02 12:22:13;;;;;;;18.00;16.08;;;;;;;;;;5012212;28;20444;-84
2023/03/02 12:24:41;;;;;;;17.40;15.18;;;;;;;;;;5033274;28;20428;-85
2023/03/02 12:27:24;;;;;;;18.60;16.13;;;;;;;;;;5016466;28;20418;-84
2023/03/02 12:30:11;;;;;;;18.75;15.85;;;;;;;;;;5016625;28;20496;-84
2023/03/02 12:32:37;;;;;;;17.73;15.93;;;;;;;;;;5015904;28;20496;-85
2023/03/02 12:35:10;;;;;;;18.45;16.45;;;;;;;;;;5016790;28;20443;-85
2023/03/02 12:37:52;;;;;;;18.55;15.95;;;;;;;;;;5015900;28;20478;-78
2023/03/02 12:40:36;;;;;;;18.83;15.98;;;;;;;;;;4996520;28;20450;-78
2023/03/02 12:43:12;;;;;;;16.98;15.18;;;;;;;;;;4997035;28;20415;-78
2023/03/02 12:45:44;;;;;;;18.55;15.88;;;;;;;;;;4996888;28;20409;-78
2023/03/02 12:48:26;;;;;;;18.10;15.10;;;;;;;;;;4996538;28;20415;-77
2023/03/02 12:50:55;;;;;;;18.75;15.68;;;;;;;;;;5004420;28;20524;-78
2023/03/02 12:53:21;;;;;;;18.52;16.52;;;;;;;;;;5018218;28;20428;-78
2023/03/02 12:55:47;;;;;;;18.58;15.98;;;;;;;;;;5044096;28;20422;-78
2023/03/02 12:58:22;;;;;;;17.58;15.63;;;;;;;;;;5023529;28;20523;-78
2023/03/02 13:00:58;;;;;;;17.40;15.60;;;;;;;;;;5003627;28;20441;-78
2023/03/02 13:03:25;;;;;;;17.65;15.48;;;;;;;;;;5015593;28;20413;-78
2023/03/02 13:05:51;;;;;;;17.88;15.23;;;;;;;;;;4999278;28;20421;-78
2023/03/02 13:08:20;;;;;;;18.10;15.13;;;;;;;;;;5022612;28;20418;-78
2023/03/02 13:10:56;;;;;;;17.45;14.82;;;;;;;;;;5015210;28;20417;-78
2023/03/02 13:13:25;;;;;;;18.65;15.38;;;;;;;;;;5016180;28;20433;-78
2023/03/02 13:15:53;;;;;;;16.13;14.43;;;;;;;;;;5009306;28;20434;-78
2023/03/02 13:18:20;;;;;;;16.95;14.25;;;;;;;;;;4999805;28;20437;-78
2023/03/02 13:20:46;;;;;;;15.52;13.88;;;;;;;;;;5016272;28;20433;-78
2023/03/02 13:23:13;;;;;;;15.93;14.23;;;;;;;;;;5015890;28;20412;-78
2023/03/02 13:25:46;;;;;;;15.98;14.18;;;;;;;;;;5005702;28;20433;-78
2023/03/02 13:28:28;;;;;;;15.05;13.43;;;;;;;;;;5015570;28;20432;-78
2023/03/02 13:31:03;;;;;;;16.08;14.38;;;;;;;;;;5014436;28;20419;-78
2023/03/02 13:33:29;;;;;;;15.73;14.10;;;;;;;;;;5013498;28;20406;-78
2023/03/02 13:35:56;;;;;;;15.50;13.63;;;;;;;;;;5005778;28;20505;-78
2023/03/02 13:38:24;;;;;;;14.48;12.98;;;;;;;;;;4996673;28;20486;-78
2023/03/02 13:40:51;;;;;;;16.17;14.40;;;;;;;;;;4998180;28;20452;-78
2023/03/02 13:43:30;;;;;;;15.48;13.43;;;;;;;;;;4994154;28;20428;-78
2023/03/02 13:46:00;;;;;;;15.55;13.60;;;;;;;;;;4993223;28;20418;-84
2023/03/02 13:48:27;;;;;;;15.05;13.45;;;;;;;;;;4977052;28;20408;-84
2023/03/02 13:50:55;;;;;;;14.27;12.77;;;;;;;;;;4993005;28;20428;-84
2023/03/02 13:53:23;;;;;;;14.80;13.18;;;;;;;;;;4993788;28;20421;-84
2023/03/02 13:55:49;;;;;;;14.88;13.27;;;;;;;;;;4993039;28;20423;-84
2023/03/02 13:58:17;;;;;;;14.95;13.20;;;;;;;;;;4993819;28;20395;-85
2023/03/02 14:00:43;;;;;;;14.93;13.20;;;;;;;;;;4992627;28;20432;-83
2023/03/02 14:03:23;;;;;;;14.98;13.38;;;;;;;;;;4976742;28;20412;-78
2023/03/02 14:05:50;;;;;;;14.75;13.10;;;;;;;;;;4992680;28;20444;-78
2023/03/02 14:08:16;;;;;;;14.67;12.40;;;;;;;;;;4993581;28;20174;-78
2023/03/02 14:10:42;;;;;;;15.53;12.13;;;;;;;;;;4974153;28;20198;-78
2023/03/02 14:13:11;;;;;;;14.30;11.67;;;;;;;;;;4992899;28;20178;-78
2023/03/02 14:15:40;;;;;;;16.17;12.50;;;;;;;;;;4977908;28;20232;-78
2023/03/02 14:18:15;;;;;;;15.10;12.50;;;;;;;;;;4974106;28;20186;-84
2023/03/02 14:20:41;;;;;;;16.03;12.73;;;;;;;;;;4978262;28;20452;-84
2023/03/02 14:23:08;;;;;;;14.60;12.20;;;;;;;;;;4977755;28;20213;-84
2023/03/02 14:25:34;;;;;;;14.07;11.70;;;;;;;;;;4993301;28;20185;-84